Etusivu
METAR-TAF:

METAR-TAF

Lentoasemat :

Kirkkoniemi, Norja

Leveyspiiri: 69-44N, Pituuspiiri: 029-54E, korkeus merenpinnasta: 9 m

Tämänhetkinen sää

Tämä raportti tehtiin 11 minuuttia sitten, kello 02.20 UTC
Tuuli 6 kn etelästä
Lämpötila 2°C
Kosteus 75%
Ilmanpaine 989 hPa
Näkyvyys 10 km tai enemmän

METAR: ENKR 250220Z AUTO 17006KT 9999 OVC033/// 02/M02 Q0989 RMK WIND 731FT 18013KT

Aika: 04:31 (02:31 UTC)

Sääennuste

Tämä raportti tehtiin 3 tuntia ja 31 minuuttia sitten, kello 23.00 UTC
Ennuste voimassa 25. päivästä klo 00 UTC - 25. päivään klo 09 UTC
Tuuli 8 kn etelästä
Näkyvyys 10 km tai enemmän
Muutamia pilviä 1500 ft:n korkeudessa
Hajonneita pilviä 4000 ft:n korkeudessa
Ajoittain
25. päivästä klo 03 UTC - 25. päivään klo 09 UTC
Hajonneita pilviä 1000 ft:n korkeudessa

TAF: ENKR 242300Z 2500/2509 17008KT 9999 FEW015 BKN040 TEMPO 2503/2509 BKN010

Säähavainnot ja -ennusteet yli 4000 lentoasemalta (METAR- ja TAF-raportit).

Käytössä olevat sääasemat on merkitty karttaan keltaisilla ja punaisilla pisteillä.

Aseta hiiri pisteen päälle nähdäksesi sääaseman nimen.

Klikkaa sitten nähdäksesi säähavainnot ja -ennusteet.

Kartan vaihtaminen: klikkaa mustalla rastilla varustettuja vihreitä pisteitä, niin voit zoomata sisään; viivalla varustettua vihreää pistettä, niin voit zoomata ulos tai vihreitä nuolia, niin pääset viereisille kartoille.


METAR-TAF: